createdAt,value
2022-08-20T00:02:54.485Z,17.72
2022-08-20T00:07:49.413Z,17.75
2022-08-20T00:12:48.615Z,17.72
2022-08-20T00:17:43.071Z,17.73
2022-08-20T00:22:36.637Z,17.72
2022-08-20T00:27:31.570Z,17.68
2022-08-20T00:32:25.180Z,17.60
2022-08-20T00:37:18.615Z,17.50
2022-08-20T00:42:12.425Z,17.64
2022-08-20T00:47:09.330Z,17.53
2022-08-20T00:52:09.200Z,17.45
2022-08-20T00:57:08.385Z,17.36
2022-08-20T01:02:03.505Z,17.32
2022-08-20T01:06:58.760Z,17.46
2022-08-20T01:11:52.230Z,17.55
2022-08-20T01:16:49.431Z,17.42
2022-08-20T01:21:45.846Z,17.45
2022-08-20T01:26:47.457Z,17.34
2022-08-20T01:31:42.828Z,17.16
2022-08-20T01:36:45.586Z,17.19
2022-08-20T01:42:08.571Z,17.15
2022-08-20T01:47:22.934Z,17.24
2022-08-20T01:52:25.914Z,17.16
2022-08-20T01:57:26.824Z,17.26
2022-08-20T02:02:20.796Z,17.23
2022-08-20T02:07:19.104Z,17.38
2022-08-20T02:12:14.367Z,17.18
2022-08-20T02:17:09.386Z,17.18
2022-08-20T02:22:13.547Z,17.19
2022-08-20T02:27:07.122Z,17.23
2022-08-20T02:32:32.396Z,17.28
2022-08-20T02:37:18.435Z,17.29
2022-08-20T02:42:12.458Z,17.34
2022-08-20T02:47:07.415Z,17.27
2022-08-20T02:52:01.017Z,17.28
2022-08-20T02:56:55.984Z,17.28
2022-08-20T03:01:56.660Z,17.25
2022-08-20T03:06:54.106Z,17.23
2022-08-20T03:11:47.424Z,17.20
2022-08-20T03:16:43.107Z,17.28
2022-08-20T03:21:36.806Z,17.23
2022-08-20T03:26:30.137Z,17.22
2022-08-20T03:31:24.364Z,17.15
2022-08-20T03:36:20.802Z,17.08
2022-08-20T03:41:21.345Z,17.03
2022-08-20T03:46:22.031Z,16.97
2022-08-20T03:51:18.627Z,16.96
2022-08-20T03:56:11.994Z,16.98
2022-08-20T04:01:32.101Z,16.94
2022-08-20T04:06:23.050Z,16.89
2022-08-20T04:11:16.384Z,16.81
2022-08-20T04:16:11.752Z,16.87
2022-08-20T04:21:08.169Z,16.95
2022-08-20T04:26:02.923Z,16.87
2022-08-20T04:30:58.799Z,16.90
2022-08-20T04:35:52.100Z,16.88
2022-08-20T04:40:58.205Z,16.86
2022-08-20T04:45:54.088Z,16.74
2022-08-20T04:50:48.350Z,16.79
2022-08-20T04:55:44.181Z,16.86
2022-08-20T05:00:37.863Z,16.92
2022-08-20T05:05:35.049Z,16.98
2022-08-20T05:10:29.791Z,17.05
2022-08-20T05:15:24.567Z,17.12
2022-08-20T05:20:19.784Z,17.16
2022-08-20T05:25:14.547Z,17.21
2022-08-20T05:30:13.567Z,17.22
2022-08-20T05:35:10.799Z,17.27
2022-08-20T05:40:10.347Z,17.35
2022-08-20T05:45:10.975Z,17.35
2022-08-20T05:50:06.532Z,17.38
2022-08-20T05:55:00.131Z,17.41
2022-08-20T05:59:53.958Z,17.28
2022-08-20T06:04:48.659Z,17.35
2022-08-20T06:09:49.857Z,17.44
2022-08-20T06:14:43.436Z,17.57
2022-08-20T06:19:38.521Z,17.76
2022-08-20T06:24:33.592Z,17.71
2022-08-20T06:29:28.292Z,17.72
2022-08-20T06:34:21.741Z,17.74
2022-08-20T06:39:16.663Z,17.82
2022-08-20T06:44:11.408Z,17.79
2022-08-20T06:49:05.997Z,17.91
2022-08-20T06:53:59.781Z,17.99
2022-08-20T06:58:53.126Z,18.10
2022-08-20T07:03:55.483Z,18.16
2022-08-20T07:08:49.465Z,18.40
2022-08-20T07:13:42.865Z,18.46
2022-08-20T07:18:36.435Z,18.66
2022-08-20T07:23:31.826Z,18.82
2022-08-20T07:28:28.932Z,19.17
2022-08-20T07:33:22.704Z,19.43
2022-08-20T07:38:24.029Z,19.57
2022-08-20T07:43:19.190Z,19.73
2022-08-20T07:48:27.902Z,19.73
2022-08-20T07:53:26.956Z,19.56
2022-08-20T07:58:23.998Z,19.41
2022-08-20T08:03:39.913Z,19.21
2022-08-20T08:08:43.648Z,19.34
2022-08-20T08:13:42.393Z,19.50
2022-08-20T08:18:42.136Z,19.61
2022-08-20T08:23:36.211Z,19.49
2022-08-20T08:28:30.647Z,19.40
2022-08-20T08:33:29.427Z,19.33
2022-08-20T08:38:24.268Z,19.55
2022-08-20T08:43:21.283Z,19.63
2022-08-20T08:48:18.811Z,19.89
2022-08-20T08:53:23.825Z,20.13
2022-08-20T08:58:17.608Z,20.30
2022-08-20T09:03:18.548Z,20.04
2022-08-20T09:08:19.426Z,19.89
2022-08-20T09:13:12.907Z,19.58
2022-08-20T09:18:06.396Z,19.49
2022-08-20T09:22:59.884Z,19.62
2022-08-20T09:27:54.727Z,19.98
2022-08-20T09:32:48.150Z,20.70
2022-08-20T09:37:41.635Z,21.22
2022-08-20T09:42:41.437Z,21.31
2022-08-20T09:47:36.658Z,21.09
2022-08-20T09:52:40.225Z,20.66
2022-08-20T09:57:40.099Z,20.32
2022-08-20T10:03:00.892Z,20.19
2022-08-20T10:07:55.861Z,20.23
2022-08-20T10:12:54.600Z,20.19
2022-08-20T10:18:04.426Z,20.33
2022-08-20T10:22:59.930Z,20.40
2022-08-20T10:27:53.866Z,20.31
2022-08-20T10:32:47.380Z,20.34
2022-08-20T10:37:42.255Z,20.45
2022-08-20T10:42:40.449Z,20.64
2022-08-20T10:47:35.766Z,20.65
2022-08-20T10:52:29.916Z,20.66
2022-08-20T10:57:29.372Z,21.04
2022-08-20T11:02:24.653Z,21.17
2022-08-20T11:07:21.877Z,21.33
2022-08-20T11:12:37.175Z,21.33
2022-08-20T11:17:33.800Z,21.52
2022-08-20T11:22:30.638Z,21.43
2022-08-20T11:27:26.659Z,21.42
2022-08-20T11:32:22.518Z,21.22
2022-08-20T11:37:18.566Z,21.21
2022-08-20T11:42:12.971Z,21.18
2022-08-20T11:47:08.407Z,21.37
2022-08-20T11:56:58.910Z,22.13
2022-08-20T12:07:11.181Z,22.82
2022-08-20T12:42:58.817Z,21.41
2022-08-20T12:47:52.207Z,21.24
2022-08-20T12:58:22.282Z,21.32
2022-08-20T13:03:16.071Z,21.50
2022-08-20T13:08:12.148Z,21.74
2022-08-20T13:13:05.823Z,21.84
2022-08-20T13:18:04.433Z,21.90
2022-08-20T13:22:58.476Z,22.06
2022-08-20T13:27:57.134Z,22.03
2022-08-20T13:32:50.628Z,21.96
2022-08-20T13:37:45.529Z,21.88
2022-08-20T13:42:40.051Z,21.89
2022-08-20T13:47:38.200Z,21.78
2022-08-20T13:52:32.055Z,21.71
2022-08-20T13:57:28.017Z,21.47
2022-08-20T14:02:22.546Z,21.19
2022-08-20T14:07:19.125Z,21.16
2022-08-20T14:12:14.268Z,20.93
2022-08-20T14:17:21.901Z,20.57
2022-08-20T14:22:17.443Z,20.45
2022-08-20T14:27:10.831Z,20.12
2022-08-20T14:32:05.672Z,20.12
2022-08-20T14:37:13.014Z,20.13
2022-08-20T14:42:07.182Z,20.12
2022-08-20T14:47:13.702Z,20.06
2022-08-20T14:52:08.975Z,20.23
2022-08-20T15:02:15.906Z,20.52
2022-08-20T15:17:32.322Z,20.53
2022-08-20T15:27:27.419Z,20.57
2022-08-20T15:32:22.362Z,20.32
2022-08-20T15:37:19.852Z,20.40
2022-08-20T16:18:36.270Z,20.21
2022-08-20T16:59:35.612Z,20.56
2022-08-20T17:09:31.337Z,20.66
2022-08-20T17:14:27.172Z,20.68
2022-08-20T17:19:26.324Z,20.67
2022-08-20T17:24:28.326Z,20.67
2022-08-20T17:29:25.679Z,20.67
2022-08-20T17:34:22.429Z,20.61
2022-08-20T17:39:20.388Z,20.57
2022-08-20T17:44:23.871Z,20.45
2022-08-20T17:49:22.003Z,20.31
2022-08-20T17:54:27.220Z,20.27
2022-08-20T18:00:01.158Z,20.08
2022-08-20T18:04:48.230Z,19.92
2022-08-20T18:09:57.251Z,19.79
2022-08-20T18:15:04.141Z,19.58
2022-08-20T18:20:25.158Z,19.52
2022-08-20T18:25:36.564Z,19.55
2022-08-20T18:30:34.685Z,19.58
2022-08-20T18:35:38.742Z,19.46
2022-08-20T18:40:41.579Z,19.46
2022-08-20T18:45:37.979Z,19.38
2022-08-20T18:50:45.500Z,19.37
2022-08-20T18:55:42.697Z,19.37
2022-08-20T19:00:43.172Z,19.25
2022-08-20T19:05:48.494Z,19.21
2022-08-20T19:16:03.398Z,19.06
2022-08-20T19:21:01.611Z,19.08
2022-08-20T19:31:16.912Z,19.08
2022-08-20T19:36:14.678Z,19.00
2022-08-20T19:46:27.429Z,18.71
2022-08-20T19:51:30.784Z,18.78
2022-08-20T19:56:29.306Z,18.78
2022-08-20T20:22:24.608Z,18.48
2022-08-20T22:11:24.954Z,18.13
2022-08-20T22:32:51.990Z,17.75
